Time;durP1;ratioP1;P1;durP2;ratioP2;P2;SDS_P1;SDS_P2;PMS_P1;PMS_P2;Temp;Humidity;BMP_temperature;BMP_pressure;BME280_temperature;BME280_humidity;BME280_pressure;Samples;Min_cycle;Max_cycle;Signal;HPM_P1;HPM_P2
2021/08/20 00:00:14;;;;;;;11.77;9.35;;;16.60;99.90;;;;;;5093765;28;20937;-70
2021/08/20 00:02:43;;;;;;;132.53;38.30;;;16.70;99.90;;;;;;5094704;28;20209;-71
2021/08/20 00:05:13;;;;;;;139.40;37.27;;;16.70;99.90;;;;;;5095037;28;20966;-71
2021/08/20 00:07:42;;;;;;;188.90;47.07;;;16.70;99.90;;;;;;5095046;28;20486;-70
2021/08/20 00:10:11;;;;;;;225.83;46.73;;;16.60;99.90;;;;;;5094896;28;20435;-71
2021/08/20 00:12:39;;;;;;;156.00;51.23;;;16.60;99.90;;;;;;5093253;28;20847;-70
2021/08/20 00:15:09;;;;;;;140.77;46.37;;;16.60;99.90;;;;;;5094671;28;20531;-70
2021/08/20 00:17:37;;;;;;;157.17;41.20;;;16.60;99.90;;;;;;5094551;28;20747;-70
2021/08/20 00:20:06;;;;;;;157.33;45.90;;;16.50;99.90;;;;;;5094071;28;20886;-70
2021/08/20 00:22:36;;;;;;;124.83;44.80;;;16.50;99.90;;;;;;5094377;28;20431;-70
2021/08/20 00:25:05;;;;;;;10.60;9.43;;;16.50;99.90;;;;;;5093867;28;20427;-70
2021/08/20 00:27:33;;;;;;;184.43;42.10;;;16.60;99.90;;;;;;5094364;28;20197;-70
2021/08/20 00:30:03;;;;;;;39.15;15.30;;;16.60;99.90;;;;;;5093858;28;20444;-70
2021/08/20 00:32:31;;;;;;;138.70;37.60;;;16.60;99.90;;;;;;5092746;28;20218;-70
2021/08/20 00:34:59;;;;;;;196.97;43.17;;;16.60;99.90;;;;;;5094190;28;20443;-70
2021/08/20 00:37:27;;;;;;;191.33;44.03;;;16.50;99.90;;;;;;5092971;28;20448;-70
2021/08/20 00:39:58;;;;;;;135.80;39.50;;;16.50;99.90;;;;;;5092858;28;20966;-70
2021/08/20 00:42:26;;;;;;;196.50;40.90;;;16.50;99.90;;;;;;5092147;28;20912;-70
2021/08/20 00:44:54;;;;;;;162.67;45.37;;;16.50;99.90;;;;;;5092764;28;20437;-70
2021/08/20 00:47:22;;;;;;;149.27;42.93;;;16.50;99.90;;;;;;5093976;28;20440;-70
2021/08/20 00:49:51;;;;;;;174.73;40.30;;;16.40;99.90;;;;;;5092658;28;20966;-70
2021/08/20 00:52:20;;;;;;;156.33;45.47;;;16.50;99.90;;;;;;5093863;28;20973;-70
2021/08/20 00:54:48;;;;;;;113.93;33.90;;;16.50;99.90;;;;;;5092610;28;20535;-70
2021/08/20 00:57:18;;;;;;;174.37;41.90;;;16.40;99.90;;;;;;5094142;28;20193;-70
2021/08/20 00:59:46;;;;;;;127.57;42.37;;;16.50;99.90;;;;;;5093871;28;20763;-70
2021/08/20 01:02:15;;;;;;;10.02;8.13;;;16.40;99.90;;;;;;5090799;28;20468;-70
2021/08/20 01:04:46;;;;;;;164.70;35.20;;;16.50;99.90;;;;;;5092507;28;20197;-70
2021/08/20 01:07:16;;;;;;;151.37;43.87;;;16.50;99.90;;;;;;5092300;28;20427;-70
2021/08/20 01:09:47;;;;;;;113.10;40.60;;;16.50;99.90;;;;;;5092371;28;20457;-70
2021/08/20 01:12:15;;;;;;;158.20;49.80;;;16.50;99.90;;;;;;5092331;28;20449;-70
2021/08/20 01:14:49;;;;;;;146.67;41.07;;;16.40;99.90;;;;;;5093088;28;20461;-70
2021/08/20 01:17:19;;;;;;;147.40;45.93;;;16.40;99.90;;;;;;5092623;28;20450;-70
2021/08/20 01:19:50;;;;;;;153.40;45.50;;;16.40;99.90;;;;;;5092303;28;20847;-70
2021/08/20 01:22:19;;;;;;;164.47;43.20;;;16.40;99.90;;;;;;5092134;28;20882;-70
2021/08/20 01:24:47;;;;;;;127.20;43.67;;;16.40;99.90;;;;;;5092238;28;21002;-70
2021/08/20 01:27:22;;;;;;;9.68;8.27;;;16.40;99.90;;;;;;5091671;28;20442;-70
2021/08/20 01:29:50;;;;;;;85.93;40.77;;;16.50;99.90;;;;;;5093412;28;20284;-70
2021/08/20 01:32:19;;;;;;;172.67;41.67;;;16.50;99.90;;;;;;5092248;28;20427;-70
2021/08/20 01:34:47;;;;;;;131.47;44.23;;;16.40;99.90;;;;;;5091463;28;20512;-70
2021/08/20 01:37:16;;;;;;;144.73;38.17;;;16.40;99.90;;;;;;5092007;28;20781;-70
2021/08/20 01:39:44;;;;;;;130.13;43.63;;;16.40;99.90;;;;;;5071843;28;20502;-70
2021/08/20 01:42:14;;;;;;;140.70;44.97;;;16.40;99.90;;;;;;5071691;28;20537;-70
2021/08/20 01:44:43;;;;;;;165.30;47.40;;;16.40;99.90;;;;;;5071741;28;20458;-70
2021/08/20 01:47:12;;;;;;;145.83;46.63;;;16.40;99.90;;;;;;5071745;28;20449;-70
2021/08/20 01:49:42;;;;;;;134.93;43.03;;;16.40;99.90;;;;;;5088518;28;20418;-70
2021/08/20 01:52:10;;;;;;;148.20;43.10;;;16.40;99.90;;;;;;5073159;28;20926;-70
2021/08/20 01:54:39;;;;;;;135.43;43.30;;;16.40;99.90;;;;;;5073815;28;20443;-70
2021/08/20 01:57:08;;;;;;;149.67;45.43;;;16.40;99.90;;;;;;5113083;28;20419;-70
2021/08/20 01:59:37;;;;;;;154.00;50.03;;;16.40;99.90;;;;;;5095906;28;20456;-70
2021/08/20 02:02:07;;;;;;;167.33;49.47;;;16.40;99.90;;;;;;5095921;28;20415;-70
2021/08/20 02:04:36;;;;;;;19.42;17.42;;;16.40;99.90;;;;;;5095104;28;20509;-70
2021/08/20 02:07:05;;;;;;;159.40;49.43;;;16.40;99.90;;;;;;5096042;28;20212;-70
2021/08/20 02:09:33;;;;;;;166.50;55.80;;;16.40;99.90;;;;;;5095888;28;20997;-70
2021/08/20 02:12:01;;;;;;;191.37;52.53;;;16.40;99.90;;;;;;5095812;28;20861;-70
2021/08/20 02:14:37;;;;;;;168.27;56.90;;;16.40;99.90;;;;;;5096055;28;20817;-70
2021/08/20 02:17:08;;;;;;;159.23;50.60;;;16.40;99.90;;;;;;5095580;28;20439;-70
2021/08/20 02:19:37;;;;;;;167.67;53.60;;;16.40;99.90;;;;;;5095260;28;20440;-70
2021/08/20 02:22:05;;;;;;;164.53;52.93;;;16.40;99.90;;;;;;5095395;28;20426;-70
2021/08/20 02:24:54;;;;;;;160.57;56.13;;;16.30;99.90;;;;;;5095472;28;20436;-70
2021/08/20 02:27:23;;;;;;;154.27;51.13;;;16.30;99.90;;;;;;5095619;28;20411;-70
2021/08/20 02:29:58;;;;;;;21.20;19.00;;;16.30;99.90;;;;;;5111872;28;20444;-70
2021/08/20 02:32:27;;;;;;;146.27;45.90;;;16.30;99.90;;;;;;5095313;28;20229;-70
2021/08/20 02:34:56;;;;;;;61.63;26.23;;;16.40;99.90;;;;;;5095578;28;20444;-70
2021/08/20 02:37:26;;;;;;;118.43;49.27;;;16.40;99.90;;;;;;5095245;28;20206;-70
2021/08/20 02:39:54;;;;;;;158.93;45.17;;;16.40;99.90;;;;;;5094858;28;20455;-70
2021/08/20 02:42:22;;;;;;;158.80;46.93;;;16.30;99.90;;;;;;5094974;28;20802;-70
2021/08/20 02:44:50;;;;;;;121.33;46.40;;;16.30;99.90;;;;;;5095133;28;20448;-70
2021/08/20 02:47:20;;;;;;;149.30;43.27;;;16.30;99.90;;;;;;5095077;28;20549;-70
2021/08/20 02:49:50;;;;;;;106.63;41.77;;;16.30;99.90;;;;;;5095325;28;20422;-70
2021/08/20 02:52:18;;;;;;;162.23;46.10;;;16.30;99.90;;;;;;5094819;28;20538;-70
2021/08/20 02:54:46;;;;;;;140.67;44.30;;;16.30;99.90;;;;;;5095097;28;20438;-70
2021/08/20 02:57:14;;;;;;;203.30;47.53;;;16.20;99.90;;;;;;5094766;28;20440;-70
2021/08/20 02:59:50;;;;;;;138.10;43.77;;;16.20;99.90;;;;;;5094352;28;20434;-70
2021/08/20 03:02:19;;;;;;;10.68;9.57;;;16.20;99.90;;;;;;5093723;28;20443;-70
2021/08/20 03:04:47;;;;;;;181.03;38.50;;;16.30;99.90;;;;;;5094322;28;20194;-70
2021/08/20 03:07:19;;;;;;;164.17;40.63;;;16.30;99.90;;;;;;5094659;28;20986;-70
2021/08/20 03:09:47;;;;;;;152.30;43.27;;;16.30;99.90;;;;;;5094681;28;20535;-70
2021/08/20 03:12:16;;;;;;;205.20;43.37;;;16.30;99.90;;;;;;5096072;28;20449;-70
2021/08/20 03:14:49;;;;;;;184.67;45.37;;;16.30;99.90;;;;;;5094579;28;20435;-70
2021/08/20 03:17:18;;;;;;;126.83;39.63;;;16.20;99.90;;;;;;5094458;28;20415;-70
2021/08/20 03:19:47;;;;;;;172.90;43.50;;;16.30;99.90;;;;;;5094035;28;20825;-70
2021/08/20 03:22:16;;;;;;;160.50;45.47;;;16.20;99.90;;;;;;5094411;28;20438;-70
2021/08/20 03:24:45;;;;;;;139.53;44.10;;;16.20;99.90;;;;;;5095728;28;20404;-70
2021/08/20 03:27:13;;;;;;;164.67;42.23;;;16.20;99.90;;;;;;5094337;28;20470;-70
2021/08/20 03:29:54;;;;;;;154.03;42.07;;;16.20;99.90;;;;;;5094871;28;20433;-70
2021/08/20 03:32:26;;;;;;;215.97;45.87;;;16.20;99.90;;;;;;5094213;28;21031;-70
2021/08/20 03:34:55;;;;;;;204.00;45.80;;;16.10;99.90;;;;;;5094053;28;20526;-70
2021/08/20 03:37:24;;;;;;;173.60;44.60;;;16.10;99.90;;;;;;5094127;28;21036;-70
2021/08/20 03:39:55;;;;;;;10.23;9.23;;;16.10;99.90;;;;;;5090960;28;20501;-70
2021/08/20 03:42:25;;;;;;;168.67;38.70;;;16.20;99.90;;;;;;5073827;28;20211;-70
2021/08/20 03:45:24;;;;;;;164.20;40.77;;;16.20;99.90;;;;;;5090328;28;20491;-70
2021/08/20 03:47:53;;;;;;;148.33;47.83;;;16.20;99.90;;;;;;5090563;28;20432;-70
2021/08/20 03:50:22;;;;;;;162.93;47.13;;;16.20;99.90;;;;;;5090465;28;20448;-70
2021/08/20 03:52:50;;;;;;;188.10;38.03;;;16.20;99.90;;;;;;5081718;28;20489;-70
2021/08/20 03:55:20;;;;;;;177.87;46.57;;;16.10;99.90;;;;;;5093639;28;20443;-70
2021/08/20 03:58:07;;;;;;;170.13;42.37;;;16.10;99.90;;;;;;5094958;28;20528;-70
2021/08/20 04:00:38;;;;;;;121.53;42.63;;;16.10;99.90;;;;;;5093963;28;20444;-70
2021/08/20 04:03:08;;;;;;;153.20;39.63;;;16.10;99.90;;;;;;5095381;28;20931;-70
2021/08/20 04:05:38;;;;;;;9.77;8.80;;;16.10;99.90;;;;;;5093120;28;20429;-70
2021/08/20 04:08:15;;;;;;;135.17;38.37;;;16.20;99.90;;;;;;5093240;28;20293;-70
2021/08/20 04:11:14;;;;;;;10.32;9.23;;;16.20;99.90;;;;;;5085077;28;20444;-70
2021/08/20 04:13:56;;;;;;;124.20;36.93;;;16.20;99.90;;;;;;5073164;28;20225;-70
2021/08/20 04:16:24;;;;;;;183.50;43.13;;;16.20;99.90;;;;;;5089549;28;20469;-70
2021/08/20 04:18:53;;;;;;;152.23;41.53;;;16.20;99.90;;;;;;5088132;28;20491;-70
2021/08/20 04:21:21;;;;;;;141.70;42.63;;;16.20;99.90;;;;;;5093224;28;20452;-70
2021/08/20 04:23:49;;;;;;;160.53;43.13;;;16.20;99.90;;;;;;5093194;28;20459;-70
2021/08/20 04:26:19;;;;;;;117.73;44.63;;;16.20;99.90;;;;;;5110154;28;20411;-70
2021/08/20 04:29:01;;;;;;;190.03;46.53;;;16.20;99.90;;;;;;5093419;28;20477;-70
2021/08/20 04:31:47;;;;;;;171.60;40.33;;;16.20;99.90;;;;;;5094721;28;20915;-70
2021/08/20 04:34:34;;;;;;;180.37;46.63;;;16.20;99.90;;;;;;5090798;28;20456;-70
2021/08/20 04:37:31;;;;;;;13.32;11.93;;;16.10;99.90;;;;;;5021721;28;20470;-70
2021/08/20 04:40:26;;;;;;;126.07;41.33;;;16.20;99.90;;;;;;5091978;28;20234;-70
2021/08/20 04:43:22;;;;;;;13.48;12.07;;;16.20;99.90;;;;;;5092225;28;20423;-70
2021/08/20 04:46:05;;;;;;;133.00;42.83;;;16.20;99.90;;;;;;5093092;28;20676;-70
2021/08/20 04:48:58;;;;;;;184.83;48.10;;;16.20;99.90;;;;;;5094319;28;20985;-70
2021/08/20 04:51:44;;;;;;;160.07;41.73;;;16.20;99.90;;;;;;5094168;28;20442;-70
2021/08/20 04:54:25;;;;;;;213.73;47.53;;;16.20;99.90;;;;;;5092420;28;20796;-70
2021/08/20 04:56:57;;;;;;;158.67;49.23;;;16.20;99.90;;;;;;5092620;28;20502;-70
2021/08/20 04:59:27;;;;;;;209.07;45.87;;;16.20;99.90;;;;;;5092588;28;20423;-70
2021/08/20 05:01:55;;;;;;;193.93;45.03;;;16.10;99.90;;;;;;5092502;28;20505;-70
2021/08/20 05:04:24;;;;;;;198.50;50.20;;;16.20;99.90;;;;;;5092404;28;20987;-70
2021/08/20 05:06:52;;;;;;;138.43;45.50;;;16.10;99.90;;;;;;5092449;28;20440;-70
2021/08/20 05:09:20;;;;;;;45.65;20.80;;;16.10;99.90;;;;;;5093012;28;20427;-70
2021/08/20 05:11:48;;;;;;;184.03;50.57;;;16.20;99.90;;;;;;5086408;28;20202;-70
2021/08/20 05:14:16;;;;;;;163.38;42.53;;;16.20;99.90;;;;;;5093616;28;20414;-70
2021/08/20 05:16:48;;;;;;;179.87;46.53;;;16.20;99.90;;;;;;5093555;28;20281;-70
2021/08/20 05:19:16;;;;;;;180.90;51.77;;;16.20;99.90;;;;;;5094120;28;20428;-71
2021/08/20 05:21:44;;;;;;;155.77;49.83;;;16.20;99.90;;;;;;5093622;28;20415;-71
2021/08/20 05:24:12;;;;;;;144.80;46.10;;;16.20;99.90;;;;;;5093386;28;20419;-71
2021/08/20 05:26:40;;;;;;;178.23;51.20;;;16.20;99.90;;;;;;5091775;28;20950;-71
2021/08/20 05:29:08;;;;;;;141.30;59.43;;;16.20;99.90;;;;;;5092773;28;20411;-71
2021/08/20 05:31:36;;;;;;;181.50;50.10;;;16.20;99.90;;;;;;5092145;28;20515;-71
2021/08/20 05:34:06;;;;;;;167.33;60.33;;;16.20;99.90;;;;;;5090926;28;20492;-71
2021/08/20 05:36:34;;;;;;;162.90;58.53;;;16.20;99.90;;;;;;5093154;28;20447;-71
2021/08/20 05:39:02;;;;;;;159.07;57.33;;;16.20;99.90;;;;;;5093259;28;20448;-71
2021/08/20 05:41:31;;;;;;;27.95;24.42;;;16.20;99.90;;;;;;5092805;28;20429;-71
2021/08/20 05:43:59;;;;;;;174.27;54.40;;;16.30;99.90;;;;;;5093107;28;20693;-71
2021/08/20 05:46:27;;;;;;;140.10;46.42;;;16.30;99.90;;;;;;5091989;28;20447;-71
2021/08/20 05:48:56;;;;;;;221.73;62.33;;;16.30;99.90;;;;;;5092265;28;20195;-71
2021/08/20 05:51:26;;;;;;;194.50;65.77;;;16.30;99.90;;;;;;5093135;28;20517;-71
2021/08/20 05:53:54;;;;;;;191.77;62.37;;;16.30;99.90;;;;;;5093185;28;20951;-71
2021/08/20 05:56:22;;;;;;;196.03;62.10;;;16.30;99.90;;;;;;5090702;28;20472;-71
2021/08/20 05:58:52;;;;;;;237.27;63.50;;;16.40;99.90;;;;;;5093402;28;20436;-71
2021/08/20 06:01:20;;;;;;;193.33;66.87;;;16.40;99.90;;;;;;5093720;28;20785;-71
2021/08/20 06:03:48;;;;;;;153.73;61.47;;;16.40;99.90;;;;;;5108752;28;20503;-70
2021/08/20 06:06:39;;;;;;;196.10;68.93;;;16.40;99.90;;;;;;5092021;28;20422;-71
2021/08/20 06:09:09;;;;;;;209.80;72.27;;;16.40;99.90;;;;;;5092233;28;20432;-70
2021/08/20 06:11:38;;;;;;;194.70;64.87;;;16.40;99.90;;;;;;5091981;28;20445;-70
2021/08/20 06:14:06;;;;;;;39.35;33.60;;;16.40;99.90;;;;;;5091443;28;20451;-70
2021/08/20 06:16:34;;;;;;;147.53;62.47;;;16.50;99.90;;;;;;5093609;28;20199;-71
2021/08/20 06:19:02;;;;;;;104.63;45.97;;;16.50;99.90;;;;;;5091802;28;20765;-71
2021/08/20 06:21:31;;;;;;;173.57;61.50;;;16.60;99.90;;;;;;5093263;28;20645;-71
2021/08/20 06:24:00;;;;;;;190.47;67.90;;;16.70;99.90;;;;;;5091809;28;20445;-70
2021/08/20 06:26:28;;;;;;;232.03;60.00;;;16.70;99.90;;;;;;5093279;28;20438;-70
2021/08/20 06:28:57;;;;;;;180.67;64.13;;;16.80;99.90;;;;;;5092871;28;20459;-71
2021/08/20 06:31:25;;;;;;;165.67;65.23;;;16.90;99.90;;;;;;5092302;28;20451;-71
2021/08/20 06:33:56;;;;;;;204.87;67.00;;;17.00;99.90;;;;;;5092749;28;20434;-70
2021/08/20 06:36:24;;;;;;;228.50;66.23;;;17.20;99.90;;;;;;5093282;28;20463;-70
2021/08/20 06:38:52;;;;;;;263.13;65.77;;;17.40;99.90;;;;;;5090410;28;20482;-70
2021/08/20 06:41:22;;;;;;;177.33;59.97;;;17.50;99.90;;;;;;5095204;28;20519;-70
2021/08/20 06:43:52;;;;;;;210.97;64.53;;;17.60;99.90;;;;;;5095238;28;20498;-71
2021/08/20 06:46:20;;;;;;;37.17;33.20;;;17.50;99.90;;;;;;5094398;28;20854;-71
2021/08/20 06:48:48;;;;;;;187.63;56.83;;;17.60;99.90;;;;;;5095084;28;20731;-71
2021/08/20 06:51:21;;;;;;;103.63;42.75;;;17.50;99.90;;;;;;5096730;28;20421;-71
2021/08/20 06:53:49;;;;;;;212.43;63.70;;;17.50;99.90;;;;;;5094961;28;20223;-71
2021/08/20 06:56:17;;;;;;;241.93;60.80;;;17.50;99.90;;;;;;5096556;28;20475;-70
2021/08/20 06:58:46;;;;;;;169.97;62.53;;;17.50;99.90;;;;;;5096451;28;20460;-71
2021/08/20 07:01:16;;;;;;;226.90;66.17;;;17.50;99.90;;;;;;5096346;28;20501;-72
2021/08/20 07:03:45;;;;;;;195.40;61.90;;;17.40;99.90;;;;;;5095784;28;20941;-72
2021/08/20 07:06:20;;;;;;;159.00;62.97;;;17.40;99.90;;;;;;5096372;28;20459;-70
2021/08/20 07:08:49;;;;;;;195.13;65.13;;;17.40;99.90;;;;;;5096073;28;21010;-71
2021/08/20 07:11:17;;;;;;;188.37;59.00;;;17.30;99.90;;;;;;5096017;28;20414;-71
2021/08/20 07:13:47;;;;;;;228.87;65.97;;;17.30;99.90;;;;;;5095970;28;20525;-71
2021/08/20 07:16:15;;;;;;;200.50;64.10;;;17.30;99.90;;;;;;5096341;28;20467;-70
2021/08/20 07:18:44;;;;;;;36.60;32.83;;;17.30;99.90;;;;;;5094871;28;20475;-70
2021/08/20 07:21:12;;;;;;;210.37;69.57;;;17.30;99.90;;;;;;5094816;28;20194;-71
2021/08/20 07:23:40;;;;;;;224.33;61.07;;;17.30;99.90;;;;;;5095779;28;20456;-71
2021/08/20 07:26:09;;;;;;;247.00;61.03;;;17.40;99.90;;;;;;5095009;28;20437;-70
2021/08/20 07:28:37;;;;;;;193.63;64.80;;;17.30;99.90;;;;;;5096017;28;20452;-71
2021/08/20 07:31:07;;;;;;;219.60;60.30;;;17.40;99.90;;;;;;5096224;28;20437;-72
2021/08/20 07:33:35;;;;;;;233.07;62.00;;;17.40;99.90;;;;;;5094367;28;20468;-71
2021/08/20 07:36:04;;;;;;;203.03;56.43;;;17.50;99.90;;;;;;5094263;28;20451;-71
2021/08/20 07:38:32;;;;;;;234.47;59.30;;;17.60;99.90;;;;;;5095777;28;20440;-72
2021/08/20 07:41:00;;;;;;;191.30;58.47;;;17.80;99.90;;;;;;5095547;28;20443;-71
2021/08/20 07:43:28;;;;;;;229.20;66.33;;;18.00;99.90;;;;;;5095300;28;20456;-71
2021/08/20 07:45:57;;;;;;;248.47;63.80;;;18.20;99.90;;;;;;5095560;28;20547;-73
2021/08/20 07:48:26;;;;;;;188.40;57.77;;;18.30;99.90;;;;;;5093119;28;20452;-72
2021/08/20 07:50:54;;;;;;;261.27;60.77;;;18.30;99.90;;;;;;5095267;28;20490;-72
2021/08/20 07:53:22;;;;;;;247.87;58.83;;;18.30;99.90;;;;;;5095288;28;20484;-71
2021/08/20 07:55:50;;;;;;;26.93;24.13;;;18.30;99.90;;;;;;5094323;28;20445;-72
2021/08/20 07:58:19;;;;;;;232.60;57.03;;;18.40;99.90;;;;;;5110819;28;20560;-71
2021/08/20 08:00:47;;;;;;;207.20;52.87;;;18.50;99.90;;;;;;5094969;28;20923;-71
2021/08/20 08:03:15;;;;;;;255.97;55.40;;;18.50;99.90;;;;;;5094994;28;20555;-71
2021/08/20 08:05:45;;;;;;;236.80;55.30;;;18.60;99.90;;;;;;5093020;28;20444;-72
2021/08/20 08:08:13;;;;;;;290.53;55.83;;;18.70;99.90;;;;;;5111321;28;20935;-72
2021/08/20 08:10:41;;;;;;;279.07;62.03;;;18.70;99.90;;;;;;5096400;28;20431;-72
2021/08/20 08:13:10;;;;;;;269.67;57.93;;;18.70;99.90;;;;;;5095922;28;20456;-72
2021/08/20 08:15:39;;;;;;;248.50;58.73;;;18.70;99.90;;;;;;5094344;28;20440;-72
2021/08/20 08:18:07;;;;;;;239.43;55.43;;;18.70;99.90;;;;;;5095534;28;21070;-72
2021/08/20 08:20:35;;;;;;;110.50;32.88;;;18.80;99.90;;;;;;5095194;28;20435;-72
2021/08/20 08:23:05;;;;;;;230.50;52.70;;;19.00;99.90;;;;;;5095531;28;20217;-72
2021/08/20 08:25:33;;;;;;;258.87;58.23;;;19.00;99.90;;;;;;5094112;28;20481;-72
2021/08/20 08:28:01;;;;;;;242.43;55.77;;;19.10;99.90;;;;;;5095541;28;20957;-72
2021/08/20 08:30:35;;;;;;;287.10;58.07;;;19.10;99.90;;;;;;5095141;28;20455;-72
2021/08/20 08:33:04;;;;;;;228.33;58.00;;;19.20;99.90;;;;;;5093057;28;20502;-72
2021/08/20 08:35:38;;;;;;;295.20;58.80;;;19.20;99.90;;;;;;5095055;28;20450;-72
2021/08/20 08:38:09;;;;;;;261.63;55.40;;;19.30;99.90;;;;;;5093931;28;20475;-72
2021/08/20 08:40:40;;;;;;;282.27;62.70;;;19.40;99.90;;;;;;5095583;28;20417;-72
2021/08/20 08:43:10;;;;;;;286.70;58.40;;;19.40;99.90;;;;;;5095076;28;20480;-72
2021/08/20 08:45:38;;;;;;;287.90;61.23;;;19.50;99.90;;;;;;5094341;28;20803;-72
2021/08/20 08:48:09;;;;;;;265.40;56.67;;;19.50;99.90;;;;;;5095458;28;20432;-72
2021/08/20 08:50:38;;;;;;;192.50;60.13;;;19.50;99.90;;;;;;5095718;28;20413;-72
2021/08/20 08:53:07;;;;;;;286.33;55.10;;;19.50;99.90;;;;;;5094692;28;20837;-72
2021/08/20 08:55:49;;;;;;;287.43;56.73;;;19.50;99.90;;;;;;5093480;28;20444;-72
2021/08/20 08:58:17;;;;;;;18.67;16.88;;;19.40;99.90;;;;;;5092087;28;20531;-72
2021/08/20 09:00:46;;;;;;;237.73;51.63;;;19.50;99.90;;;;;;5095007;28;20247;-72
2021/08/20 09:03:23;;;;;;;234.50;57.87;;;19.60;99.90;;;;;;5110086;28;20470;-72
2021/08/20 09:05:52;;;;;;;262.70;61.60;;;19.60;99.90;;;;;;5094954;28;20880;-72
2021/08/20 09:08:24;;;;;;;279.10;63.83;;;19.70;99.90;;;;;;5094684;28;20435;-72
2021/08/20 09:10:54;;;;;;;288.27;74.50;;;19.80;99.90;;;;;;5095210;28;20508;-72
2021/08/20 09:13:26;;;;;;;288.10;68.90;;;19.80;99.90;;;;;;5094603;28;20456;-72
2021/08/20 09:16:07;;;;;;;289.07;78.90;;;19.80;99.90;;;;;;5094567;28;20958;-72
2021/08/20 09:18:36;;;;;;;63.33;60.53;;;19.90;99.90;;;;;;5094809;28;20492;-72
2021/08/20 09:21:04;;;;;;;42.50;40.37;;;20.10;99.90;;;;;;5093110;28;20432;-72
2021/08/20 09:23:35;;;;;;;48.13;45.87;;;20.10;99.90;;;;;;5093006;28;20500;-72
2021/08/20 09:26:03;;;;;;;38.93;36.93;;;20.10;99.90;;;;;;5094632;28;20474;-72
2021/08/20 09:28:32;;;;;;;16.50;15.10;;;20.20;99.90;;;;;;5093585;28;20432;-72
2021/08/20 09:31:07;;;;;;;63.30;59.57;;;20.30;99.90;;;;;;5091956;28;20282;-72
2021/08/20 09:33:37;;;;;;;76.43;72.03;;;20.40;99.90;;;;;;5093378;28;20459;-72
2021/08/20 09:36:07;;;;;;;75.33;71.60;;;20.40;99.90;;;;;;5093436;28;20887;-72
2021/08/20 09:38:40;;;;;;;44.73;42.83;;;20.50;99.90;;;;;;5092067;28;20575;-72
2021/08/20 09:41:11;;;;;;;37.20;35.27;;;20.50;99.90;;;;;;5093599;28;20413;-72
2021/08/20 09:43:40;;;;;;;78.03;75.03;;;20.50;99.90;;;;;;5093541;28;20962;-72
2021/08/20 09:46:11;;;;;;;65.00;62.30;;;20.60;99.90;;;;;;5093343;28;20958;-72
2021/08/20 09:48:44;;;;;;;67.37;64.67;;;20.70;99.90;;;;;;5092058;28;20433;-73
2021/08/20 09:51:37;;;;;;;74.40;71.47;;;20.80;99.90;;;;;;5093296;28;20436;-73
2021/08/20 09:54:07;;;;;;;225.47;217.17;;;20.80;99.90;;;;;;5093383;28;20242;-73
2021/08/20 09:56:56;;;;;;;115.80;111.90;;;20.80;99.90;;;;;;5093043;28;20437;-73
2021/08/20 09:59:27;;;;;;;103.37;99.80;;;20.90;99.90;;;;;;5093362;28;20997;-73
2021/08/20 10:01:56;;;;;;;214.17;207.33;;;21.00;99.90;;;;;;5091801;28;20955;-73
2021/08/20 10:04:27;;;;;;;106.07;102.33;;;21.10;99.90;;;;;;5093055;28;20464;-73
2021/08/20 10:06:56;;;;;;;218.70;211.73;;;21.10;99.90;;;;;;5093085;28;20478;-72
2021/08/20 10:09:26;;;;;;;210.33;203.73;;;21.20;99.90;;;;;;5093550;28;20444;-72
2021/08/20 10:11:55;;;;;;;231.83;222.77;;;21.30;99.90;;;;;;5092230;28;20534;-73
2021/08/20 10:14:25;;;;;;;338.43;250.30;;;21.30;99.90;;;;;;5093449;28;20801;-73
2021/08/20 10:16:54;;;;;;;237.50;230.00;;;21.40;99.90;;;;;;5095195;28;20961;-73
2021/08/20 10:19:22;;;;;;;80.80;77.70;;;21.40;99.90;;;;;;5093419;28;20486;-72
2021/08/20 10:21:51;;;;;;;70.13;67.30;;;21.40;99.90;;;;;;5096959;28;20451;-72
2021/08/20 10:24:19;;;;;;;117.27;113.30;;;21.40;99.90;;;;;;5096848;28;20466;-72
2021/08/20 10:26:54;;;;;;;163.40;158.30;;;21.50;99.90;;;;;;5096495;28;20523;-72
2021/08/20 10:29:24;;;;;;;114.37;107.97;;;21.50;99.90;;;;;;5095731;28;20190;-73
2021/08/20 10:31:53;;;;;;;57.00;54.50;;;21.60;99.90;;;;;;5096187;28;20440;-72
2021/08/20 10:34:39;;;;;;;327.47;137.80;;;21.60;99.90;;;;;;5096632;28;20496;-72
2021/08/20 10:37:09;;;;;;;304.27;95.47;;;21.70;99.90;;;;;;5095385;28;20961;-72
2021/08/20 10:39:39;;;;;;;35.93;34.23;;;21.80;99.90;;;;;;5095092;28;20559;-72
2021/08/20 10:42:12;;;;;;;74.73;68.53;;;21.90;99.90;;;;;;5096418;28;20436;-72
2021/08/20 10:44:45;;;;;;;312.07;111.80;;;21.90;99.90;;;;;;5095366;28;20436;-72
2021/08/20 10:47:24;;;;;;;317.13;82.87;;;21.80;99.90;;;;;;5096782;28;20774;-72
2021/08/20 10:50:05;;;;;;;28.40;26.90;;;21.80;99.90;;;;;;5096228;28;20527;-72
2021/08/20 10:52:36;;;;;;;201.47;193.77;;;21.80;99.90;;;;;;5095164;28;20225;-73
2021/08/20 10:55:20;;;;;;;20.97;19.43;;;21.70;99.90;;;;;;5096378;28;20505;-73
2021/08/20 10:58:09;;;;;;;250.20;241.50;;;21.60;99.90;;;;;;5096575;28;20524;-73
2021/08/20 11:00:43;;;;;;;342.23;261.73;;;21.60;99.90;;;;;;5097176;28;20416;-72
2021/08/20 11:03:13;;;;;;;310.07;133.57;;;21.50;99.90;;;;;;5096416;28;20959;-73
2021/08/20 11:05:45;;;;;;;301.97;106.07;;;21.50;99.90;;;;;;5096187;28;20772;-72
2021/08/20 11:08:43;;;;;;;300.63;72.13;;;21.60;99.90;;;;;;5094872;28;20433;-72
2021/08/20 11:11:44;;;;;;;193.93;187.03;;;21.60;99.90;;;;;;5097073;28;20861;-73
2021/08/20 11:14:40;;;;;;;358.53;235.27;;;21.60;99.90;;;;;;5109769;28;20832;-73
2021/08/20 11:17:12;;;;;;;207.67;201.50;;;21.60;99.90;;;;;;5095438;28;20455;-73
2021/08/20 11:19:48;;;;;;;298.00;80.83;;;21.70;99.90;;;;;;5096271;28;20452;-73
2021/08/20 11:22:22;;;;;;;152.93;131.33;;;21.70;99.90;;;;;;5095952;28;20427;-73
2021/08/20 11:25:15;;;;;;;74.60;71.73;;;21.70;99.90;;;;;;5096254;28;20444;-73
2021/08/20 11:28:01;;;;;;;282.30;273.50;;;21.60;99.90;;;;;;5093740;28;20475;-73
2021/08/20 11:30:36;;;;;;;211.37;204.63;;;21.60;99.90;;;;;;5095919;28;20500;-72
2021/08/20 11:33:18;;;;;;;117.17;113.03;;;21.60;99.90;;;;;;5094201;28;20547;-73
2021/08/20 11:35:53;;;;;;;194.13;187.93;;;21.50;99.90;;;;;;5095857;28;20903;-73
2021/08/20 11:38:33;;;;;;;158.77;152.87;;;21.50;99.90;;;;;;5095608;28;20464;-73
2021/08/20 11:41:08;;;;;;;150.97;144.77;;;21.50;99.90;;;;;;5095492;28;20413;-73
2021/08/20 11:43:53;;;;;;;53.30;51.03;;;21.50;99.90;;;;;;5092200;28;20555;-73
2021/08/20 11:46:25;;;;;;;343.77;282.53;;;21.50;99.90;;;;;;5096449;28;20478;-73
2021/08/20 11:48:56;;;;;;;148.03;142.10;;;21.50;99.90;;;;;;5095354;28;20439;-72
2021/08/20 11:51:26;;;;;;;26.77;25.35;;;21.60;99.90;;;;;;5110300;28;20530;-73
2021/08/20 11:53:54;;;;;;;165.87;100.63;;;21.70;99.90;;;;;;5095128;28;20249;-73
2021/08/20 11:56:22;;;;;;;161.13;156.17;;;21.70;99.90;;;;;;5095421;28;20428;-73
2021/08/20 11:58:50;;;;;;;115.73;110.60;;;21.70;99.90;;;;;;5095276;28;20476;-73
2021/08/20 12:01:24;;;;;;;294.13;80.73;;;21.80;99.90;;;;;;5095018;28;20441;-72
2021/08/20 12:03:56;;;;;;;295.23;80.33;;;21.80;99.90;;;;;;5110398;28;20487;-73
2021/08/20 12:06:26;;;;;;;316.37;83.30;;;21.80;99.90;;;;;;5091769;28;20436;-72
2021/08/20 12:08:57;;;;;;;52.10;49.93;;;21.90;99.90;;;;;;5094874;28;20432;-73
2021/08/20 12:11:26;;;;;;;306.93;70.37;;;21.90;99.90;;;;;;5095126;28;20425;-72
2021/08/20 12:13:56;;;;;;;33.55;32.05;;;21.90;99.90;;;;;;5093624;28;21021;-72
2021/08/20 12:16:44;;;;;;;287.70;79.07;;;22.00;99.90;;;;;;5094988;28;20257;-72
2021/08/20 12:19:18;;;;;;;14.73;13.53;;;22.00;99.90;;;;;;5072455;28;20442;-72
2021/08/20 12:21:48;;;;;;;37.80;36.00;;;22.10;99.90;;;;;;5073218;28;20437;-72
2021/08/20 12:24:29;;;;;;;297.77;88.43;;;22.10;99.90;;;;;;5074409;28;20464;-73
2021/08/20 12:27:16;;;;;;;309.43;79.00;;;22.10;99.90;;;;;;5081277;28;20448;-73
2021/08/20 12:30:05;;;;;;;299.53;74.87;;;22.10;99.90;;;;;;5092342;28;20511;-72
2021/08/20 12:32:40;;;;;;;105.33;101.60;;;22.00;99.90;;;;;;5094841;28;20459;-72
2021/08/20 12:35:13;;;;;;;312.87;137.33;;;22.10;99.90;;;;;;5093144;28;20479;-73
2021/08/20 12:38:01;;;;;;;306.03;77.37;;;22.10;99.90;;;;;;5093862;28;20524;-72
2021/08/20 12:40:43;;;;;;;94.45;90.97;;;22.20;99.90;;;;;;5094000;28;20441;-73